Kalevala, Russia
Current Conditions -  °F | °C
As of 11:20 PM on Monday 24 Nov 2014 (Local Time) from EFKS Reporting Station
Light Snow Light Snow  
Wind Chill: 24°   Ceiling: 400
Heat Index: 30°   Visibility: 1.3mi
Dew Point: 30°   Wind: 6mph
Humidity: 100%   Direction: 150°SSE
Pressure: 30.12"   Gusts: NA
Location:  65.2°N, 31.17°E
Report Text: EFKS 242020Z AUTO 15005KT 2200 -SN OVC004 M01/M01 Q1020
Loading
Personal Weather Stations






























Interactive Weather Map New forecast layout! Learn more

10-Day Weather Forecast

Advertisements
Track Severe Weather on mobile